sensor_id;sensor_type;location;lat;lon;timestamp;temperature;humidity
5870;DHT22;2961;47.702;9.410;2022-08-02T00:02:03;17.30;99.90
5870;DHT22;2961;47.702;9.410;2022-08-02T00:04:30;17.20;99.90
5870;DHT22;2961;47.702;9.410;2022-08-02T00:06:57;17.20;99.90
5870;DHT22;2961;47.702;9.410;2022-08-02T00:09:24;17.20;99.90
5870;DHT22;2961;47.702;9.410;2022-08-02T00:11:50;17.20;99.90
5870;DHT22;2961;47.702;9.410;2022-08-02T00:14:17;17.20;99.90
5870;DHT22;2961;47.702;9.410;2022-08-02T00:16:44;17.10;99.90
5870;DHT22;2961;47.702;9.410;2022-08-02T00:19:13;17.10;99.90
5870;DHT22;2961;47.702;9.410;2022-08-02T00:21:40;17.00;99.90
5870;DHT22;2961;47.702;9.410;2022-08-02T00:24:07;17.10;99.90
5870;DHT22;2961;47.702;9.410;2022-08-02T00:26:34;17.00;99.90
5870;DHT22;2961;47.702;9.410;2022-08-02T00:29:01;17.10;99.90
5870;DHT22;2961;47.702;9.410;2022-08-02T00:31:29;17.10;99.90
5870;DHT22;2961;47.702;9.410;2022-08-02T00:33:56;17.10;99.90
5870;DHT22;2961;47.702;9.410;2022-08-02T00:36:24;17.10;99.90
5870;DHT22;2961;47.702;9.410;2022-08-02T00:38:51;17.10;99.90
5870;DHT22;2961;47.702;9.410;2022-08-02T00:41:19;17.10;99.90
5870;DHT22;2961;47.702;9.410;2022-08-02T00:43:47;17.00;99.90
5870;DHT22;2961;47.702;9.410;2022-08-02T00:46:16;17.00;99.90
5870;DHT22;2961;47.702;9.410;2022-08-02T00:48:43;16.90;99.90
5870;DHT22;2961;47.702;9.410;2022-08-02T00:51:10;16.90;99.90
5870;DHT22;2961;47.702;9.410;2022-08-02T00:53:39;16.90;99.90
5870;DHT22;2961;47.702;9.410;2022-08-02T00:56:06;16.80;99.90
5870;DHT22;2961;47.702;9.410;2022-08-02T00:58:32;16.80;99.90
5870;DHT22;2961;47.702;9.410;2022-08-02T01:00:59;16.80;99.90
5870;DHT22;2961;47.702;9.410;2022-08-02T01:03:26;16.70;99.90
5870;DHT22;2961;47.702;9.410;2022-08-02T01:05:53;16.70;99.90
5870;DHT22;2961;47.702;9.410;2022-08-02T01:08:20;16.70;99.90
5870;DHT22;2961;47.702;9.410;2022-08-02T01:10:48;16.70;99.90
5870;DHT22;2961;47.702;9.410;2022-08-02T01:13:15;16.70;99.90
5870;DHT22;2961;47.702;9.410;2022-08-02T01:15:46;16.60;99.90
5870;DHT22;2961;47.702;9.410;2022-08-02T01:18:22;16.50;99.90
5870;DHT22;2961;47.702;9.410;2022-08-02T01:21:13;16.40;99.90
5870;DHT22;2961;47.702;9.410;2022-08-02T01:23:56;16.40;99.90
5870;DHT22;2961;47.702;9.410;2022-08-02T01:26:36;16.40;99.90
5870;DHT22;2961;47.702;9.410;2022-08-02T01:29:09;16.40;99.90
5870;DHT22;2961;47.702;9.410;2022-08-02T01:31:43;16.40;99.90
5870;DHT22;2961;47.702;9.410;2022-08-02T01:34:17;16.30;99.90
5870;DHT22;2961;47.702;9.410;2022-08-02T01:36:48;16.30;99.90
5870;DHT22;2961;47.702;9.410;2022-08-02T01:39:20;16.20;99.90
5870;DHT22;2961;47.702;9.410;2022-08-02T01:41:49;16.20;99.90
5870;DHT22;2961;47.702;9.410;2022-08-02T01:44:20;16.20;99.90
5870;DHT22;2961;47.702;9.410;2022-08-02T01:46:48;16.00;99.90
5870;DHT22;2961;47.702;9.410;2022-08-02T01:49:18;16.00;99.90
5870;DHT22;2961;47.702;9.410;2022-08-02T01:51:47;16.00;99.90
5870;DHT22;2961;47.702;9.410;2022-08-02T01:54:32;16.00;99.90
5870;DHT22;2961;47.702;9.410;2022-08-02T01:57:03;16.00;99.90
5870;DHT22;2961;47.702;9.410;2022-08-02T01:59:32;16.00;99.90
5870;DHT22;2961;47.702;9.410;2022-08-02T02:02:00;16.10;99.90
5870;DHT22;2961;47.702;9.410;2022-08-02T02:04:30;16.10;99.90
5870;DHT22;2961;47.702;9.410;2022-08-02T02:06:58;16.00;99.90
5870;DHT22;2961;47.702;9.410;2022-08-02T02:09:27;15.90;99.90
5870;DHT22;2961;47.702;9.410;2022-08-02T02:11:58;15.90;99.90
5870;DHT22;2961;47.702;9.410;2022-08-02T02:14:26;15.90;99.90
5870;DHT22;2961;47.702;9.410;2022-08-02T02:16:56;15.80;99.90
5870;DHT22;2961;47.702;9.410;2022-08-02T02:19:25;15.70;99.90
5870;DHT22;2961;47.702;9.410;2022-08-02T02:21:53;15.70;99.90
5870;DHT22;2961;47.702;9.410;2022-08-02T02:24:20;15.60;99.90
5870;DHT22;2961;47.702;9.410;2022-08-02T02:26:48;15.60;99.90
5870;DHT22;2961;47.702;9.410;2022-08-02T02:29:17;15.60;99.90
5870;DHT22;2961;47.702;9.410;2022-08-02T02:31:46;15.70;99.90
5870;DHT22;2961;47.702;9.410;2022-08-02T02:34:16;15.70;99.90
5870;DHT22;2961;47.702;9.410;2022-08-02T02:36:47;15.60;99.90
5870;DHT22;2961;47.702;9.410;2022-08-02T02:39:15;15.60;99.90
5870;DHT22;2961;47.702;9.410;2022-08-02T02:41:45;15.60;99.90
5870;DHT22;2961;47.702;9.410;2022-08-02T02:44:18;15.50;99.90
5870;DHT22;2961;47.702;9.410;2022-08-02T02:46:47;15.50;99.90
5870;DHT22;2961;47.702;9.410;2022-08-02T02:49:17;15.40;99.90
5870;DHT22;2961;47.702;9.410;2022-08-02T02:51:44;15.40;99.90
5870;DHT22;2961;47.702;9.410;2022-08-02T02:54:12;15.30;99.90
5870;DHT22;2961;47.702;9.410;2022-08-02T02:56:41;15.20;99.90
5870;DHT22;2961;47.702;9.410;2022-08-02T02:59:09;15.20;99.90
5870;DHT22;2961;47.702;9.410;2022-08-02T03:01:38;15.30;99.90
5870;DHT22;2961;47.702;9.410;2022-08-02T03:04:06;15.30;99.90
5870;DHT22;2961;47.702;9.410;2022-08-02T03:06:36;15.30;99.90
5870;DHT22;2961;47.702;9.410;2022-08-02T03:09:04;15.20;99.90
5870;DHT22;2961;47.702;9.410;2022-08-02T03:11:31;15.10;99.90
5870;DHT22;2961;47.702;9.410;2022-08-02T03:14:02;15.00;99.90
5870;DHT22;2961;47.702;9.410;2022-08-02T03:16:29;15.00;99.90
5870;DHT22;2961;47.702;9.410;2022-08-02T03:18:57;15.00;99.90
5870;DHT22;2961;47.702;9.410;2022-08-02T03:21:27;15.10;99.90
5870;DHT22;2961;47.702;9.410;2022-08-02T03:23:55;15.00;99.90
5870;DHT22;2961;47.702;9.410;2022-08-02T03:26:22;15.00;99.90
5870;DHT22;2961;47.702;9.410;2022-08-02T03:28:49;14.90;99.90
5870;DHT22;2961;47.702;9.410;2022-08-02T03:31:16;14.90;99.90
5870;DHT22;2961;47.702;9.410;2022-08-02T03:33:43;14.90;99.90
5870;DHT22;2961;47.702;9.410;2022-08-02T03:36:12;14.90;99.90
5870;DHT22;2961;47.702;9.410;2022-08-02T03:38:40;14.90;99.90
5870;DHT22;2961;47.702;9.410;2022-08-02T03:41:12;14.90;99.90
5870;DHT22;2961;47.702;9.410;2022-08-02T03:43:42;14.90;99.90
5870;DHT22;2961;47.702;9.410;2022-08-02T03:46:12;15.10;99.90
5870;DHT22;2961;47.702;9.410;2022-08-02T03:48:40;15.30;99.90
5870;DHT22;2961;47.702;9.410;2022-08-02T03:51:07;15.40;99.90
5870;DHT22;2961;47.702;9.410;2022-08-02T03:53:35;15.50;99.90
5870;DHT22;2961;47.702;9.410;2022-08-02T03:56:04;15.60;99.90
5870;DHT22;2961;47.702;9.410;2022-08-02T03:58:33;15.70;99.90
5870;DHT22;2961;47.702;9.410;2022-08-02T04:01:00;15.70;99.90
5870;DHT22;2961;47.702;9.410;2022-08-02T04:03:27;15.60;99.90
5870;DHT22;2961;47.702;9.410;2022-08-02T04:05:54;15.60;99.90
5870;DHT22;2961;47.702;9.410;2022-08-02T04:08:21;15.60;99.90
5870;DHT22;2961;47.702;9.410;2022-08-02T04:10:48;15.60;99.90
5870;DHT22;2961;47.702;9.410;2022-08-02T04:13:35;15.60;99.90
5870;DHT22;2961;47.702;9.410;2022-08-02T04:16:06;15.50;99.90
5870;DHT22;2961;47.702;9.410;2022-08-02T04:18:39;15.50;99.90
5870;DHT22;2961;47.702;9.410;2022-08-02T04:21:08;15.50;99.90
5870;DHT22;2961;47.702;9.410;2022-08-02T04:23:39;15.50;99.90
5870;DHT22;2961;47.702;9.410;2022-08-02T04:26:08;15.50;99.90
5870;DHT22;2961;47.702;9.410;2022-08-02T04:28:37;15.50;99.90
5870;DHT22;2961;47.702;9.410;2022-08-02T04:31:06;15.40;99.90
5870;DHT22;2961;47.702;9.410;2022-08-02T04:33:34;15.30;99.90
5870;DHT22;2961;47.702;9.410;2022-08-02T04:36:01;15.30;99.90
5870;DHT22;2961;47.702;9.410;2022-08-02T04:38:28;15.30;99.90
5870;DHT22;2961;47.702;9.410;2022-08-02T04:40:55;15.30;99.90
5870;DHT22;2961;47.702;9.410;2022-08-02T04:43:22;15.30;99.90
5870;DHT22;2961;47.702;9.410;2022-08-02T04:45:52;15.30;99.90
5870;DHT22;2961;47.702;9.410;2022-08-02T04:48:19;15.30;99.90
5870;DHT22;2961;47.702;9.410;2022-08-02T04:50:46;15.40;99.90
5870;DHT22;2961;47.702;9.410;2022-08-02T04:53:13;15.50;99.90
5870;DHT22;2961;47.702;9.410;2022-08-02T04:55:40;15.60;99.90
5870;DHT22;2961;47.702;9.410;2022-08-02T04:58:07;15.80;99.90
5870;DHT22;2961;47.702;9.410;2022-08-02T05:00:34;15.90;99.90
5870;DHT22;2961;47.702;9.410;2022-08-02T05:03:02;16.00;99.90
5870;DHT22;2961;47.702;9.410;2022-08-02T05:05:29;16.10;99.90
5870;DHT22;2961;47.702;9.410;2022-08-02T05:07:57;16.10;99.90
5870;DHT22;2961;47.702;9.410;2022-08-02T05:10:43;16.20;99.90
5870;DHT22;2961;47.702;9.410;2022-08-02T05:13:10;16.30;99.90
5870;DHT22;2961;47.702;9.410;2022-08-02T05:15:37;16.40;99.90
5870;DHT22;2961;47.702;9.410;2022-08-02T05:18:05;16.50;99.90
5870;DHT22;2961;47.702;9.410;2022-08-02T05:20:32;17.10;99.90
5870;DHT22;2961;47.702;9.410;2022-08-02T05:22:59;17.80;99.90
5870;DHT22;2961;47.702;9.410;2022-08-02T05:25:28;18.30;99.90
5870;DHT22;2961;47.702;9.410;2022-08-02T05:27:55;19.30;99.90
5870;DHT22;2961;47.702;9.410;2022-08-02T05:30:22;20.60;99.90
5870;DHT22;2961;47.702;9.410;2022-08-02T05:32:49;21.60;99.90
5870;DHT22;2961;47.702;9.410;2022-08-02T05:35:20;22.60;99.90
5870;DHT22;2961;47.702;9.410;2022-08-02T05:37:47;23.30;99.90
5870;DHT22;2961;47.702;9.410;2022-08-02T05:40:14;23.90;99.90
5870;DHT22;2961;47.702;9.410;2022-08-02T05:42:42;24.40;99.90
5870;DHT22;2961;47.702;9.410;2022-08-02T05:45:09;24.90;99.90
5870;DHT22;2961;47.702;9.410;2022-08-02T05:47:37;25.50;99.90
5870;DHT22;2961;47.702;9.410;2022-08-02T05:50:06;25.80;99.90
5870;DHT22;2961;47.702;9.410;2022-08-02T05:52:43;26.20;99.90
5870;DHT22;2961;47.702;9.410;2022-08-02T05:55:11;26.80;99.90
5870;DHT22;2961;47.702;9.410;2022-08-02T05:57:48;27.30;99.90
5870;DHT22;2961;47.702;9.410;2022-08-02T06:00:16;28.10;99.90
5870;DHT22;2961;47.702;9.410;2022-08-02T06:03:02;28.30;99.90
5870;DHT22;2961;47.702;9.410;2022-08-02T06:05:32;28.90;99.20
5870;DHT22;2961;47.702;9.410;2022-08-02T06:08:02;29.00;96.90
5870;DHT22;2961;47.702;9.410;2022-08-02T06:10:34;28.90;95.70
5870;DHT22;2961;47.702;9.410;2022-08-02T06:13:07;29.00;95.40
5870;DHT22;2961;47.702;9.410;2022-08-02T06:15:35;29.10;94.70
5870;DHT22;2961;47.702;9.410;2022-08-02T06:18:03;29.10;94.30
5870;DHT22;2961;47.702;9.410;2022-08-02T06:20:31;29.20;94.20
5870;DHT22;2961;47.702;9.410;2022-08-02T06:23:02;29.00;94.00
5870;DHT22;2961;47.702;9.410;2022-08-02T06:25:31;29.00;93.70
5870;DHT22;2961;47.702;9.410;2022-08-02T06:27:59;28.10;95.20
5870;DHT22;2961;47.702;9.410;2022-08-02T06:30:26;27.50;95.60
5870;DHT22;2961;47.702;9.410;2022-08-02T06:32:54;27.20;96.80
5870;DHT22;2961;47.702;9.410;2022-08-02T06:35:21;27.10;96.30
5870;DHT22;2961;47.702;9.410;2022-08-02T06:37:51;26.60;97.20
5870;DHT22;2961;47.702;9.410;2022-08-02T06:40:25;26.80;97.80
5870;DHT22;2961;47.702;9.410;2022-08-02T06:43:02;27.40;98.50
5870;DHT22;2961;47.702;9.410;2022-08-02T06:45:31;27.60;96.90
5870;DHT22;2961;47.702;9.410;2022-08-02T06:47:58;28.00;97.50
5870;DHT22;2961;47.702;9.410;2022-08-02T06:50:25;28.20;96.10
5870;DHT22;2961;47.702;9.410;2022-08-02T06:52:52;27.50;97.60
5870;DHT22;2961;47.702;9.410;2022-08-02T06:55:19;28.00;97.40
5870;DHT22;2961;47.702;9.410;2022-08-02T06:57:47;28.10;97.20
5870;DHT22;2961;47.702;9.410;2022-08-02T07:00:14;28.90;95.80
5870;DHT22;2961;47.702;9.410;2022-08-02T07:02:41;29.20;94.90
5870;DHT22;2961;47.702;9.410;2022-08-02T07:05:08;29.90;92.70
5870;DHT22;2961;47.702;9.410;2022-08-02T07:07:35;30.20;92.70
5870;DHT22;2961;47.702;9.410;2022-08-02T07:10:03;30.80;91.20
5870;DHT22;2961;47.702;9.410;2022-08-02T07:12:32;31.40;90.20
5870;DHT22;2961;47.702;9.410;2022-08-02T07:15:02;31.60;90.40
5870;DHT22;2961;47.702;9.410;2022-08-02T07:17:30;32.40;88.30
5870;DHT22;2961;47.702;9.410;2022-08-02T07:19:58;33.20;85.10
5870;DHT22;2961;47.702;9.410;2022-08-02T07:22:25;33.90;83.10
5870;DHT22;2961;47.702;9.410;2022-08-02T07:24:53;33.50;78.00
5870;DHT22;2961;47.702;9.410;2022-08-02T07:27:20;33.50;79.20
5870;DHT22;2961;47.702;9.410;2022-08-02T07:29:47;32.80;80.10
5870;DHT22;2961;47.702;9.410;2022-08-02T07:32:17;32.70;78.60
5870;DHT22;2961;47.702;9.410;2022-08-02T07:34:44;32.10;81.80
5870;DHT22;2961;47.702;9.410;2022-08-02T07:37:12;32.60;81.40
5870;DHT22;2961;47.702;9.410;2022-08-02T07:39:39;33.00;77.60
5870;DHT22;2961;47.702;9.410;2022-08-02T07:42:05;33.00;78.40
5870;DHT22;2961;47.702;9.410;2022-08-02T07:44:32;33.00;77.10
5870;DHT22;2961;47.702;9.410;2022-08-02T07:47:00;32.60;79.90
5870;DHT22;2961;47.702;9.410;2022-08-02T07:49:28;33.10;79.90
5870;DHT22;2961;47.702;9.410;2022-08-02T07:51:56;33.10;76.50
5870;DHT22;2961;47.702;9.410;2022-08-02T07:54:23;33.30;78.50
5870;DHT22;2961;47.702;9.410;2022-08-02T07:56:50;33.50;74.80
5870;DHT22;2961;47.702;9.410;2022-08-02T07:59:18;33.20;76.10
5870;DHT22;2961;47.702;9.410;2022-08-02T08:01:45;33.60;73.50
5870;DHT22;2961;47.702;9.410;2022-08-02T08:04:13;33.70;74.40
5870;DHT22;2961;47.702;9.410;2022-08-02T08:06:42;33.50;73.70
5870;DHT22;2961;47.702;9.410;2022-08-02T08:09:09;34.10;71.70
5870;DHT22;2961;47.702;9.410;2022-08-02T08:11:36;33.90;74.00
5870;DHT22;2961;47.702;9.410;2022-08-02T08:14:03;34.20;73.70
5870;DHT22;2961;47.702;9.410;2022-08-02T08:16:30;34.60;69.10
5870;DHT22;2961;47.702;9.410;2022-08-02T08:18:57;34.60;67.80
5870;DHT22;2961;47.702;9.410;2022-08-02T08:21:24;34.20;70.00
5870;DHT22;2961;47.702;9.410;2022-08-02T08:23:53;34.00;70.90
5870;DHT22;2961;47.702;9.410;2022-08-02T08:26:19;33.80;72.70
5870;DHT22;2961;47.702;9.410;2022-08-02T08:28:46;33.40;71.60
5870;DHT22;2961;47.702;9.410;2022-08-02T08:31:13;33.20;69.10
5870;DHT22;2961;47.702;9.410;2022-08-02T08:33:40;32.70;73.20
5870;DHT22;2961;47.702;9.410;2022-08-02T08:36:07;32.90;71.50
5870;DHT22;2961;47.702;9.410;2022-08-02T08:38:34;32.60;70.40
5870;DHT22;2961;47.702;9.410;2022-08-02T08:41:02;32.40;70.40
5870;DHT22;2961;47.702;9.410;2022-08-02T08:43:29;31.80;72.10
5870;DHT22;2961;47.702;9.410;2022-08-02T08:45:56;31.30;74.10
5870;DHT22;2961;47.702;9.410;2022-08-02T08:48:23;30.70;75.40
5870;DHT22;2961;47.702;9.410;2022-08-02T08:50:54;30.40;78.20
5870;DHT22;2961;47.702;9.410;2022-08-02T08:53:24;30.10;76.80
5870;DHT22;2961;47.702;9.410;2022-08-02T08:55:52;29.40;80.90
5870;DHT22;2961;47.702;9.410;2022-08-02T08:58:22;28.90;81.90
5870;DHT22;2961;47.702;9.410;2022-08-02T09:00:49;28.30;84.00
5870;DHT22;2961;47.702;9.410;2022-08-02T09:03:16;27.60;87.50
5870;DHT22;2961;47.702;9.410;2022-08-02T09:05:43;27.20;85.90
5870;DHT22;2961;47.702;9.410;2022-08-02T09:08:12;26.90;89.80
5870;DHT22;2961;47.702;9.410;2022-08-02T09:10:41;26.50;88.00
5870;DHT22;2961;47.702;9.410;2022-08-02T09:13:14;26.40;89.60
5870;DHT22;2961;47.702;9.410;2022-08-02T09:15:53;26.40;91.50
5870;DHT22;2961;47.702;9.410;2022-08-02T09:18:28;26.50;89.40
5870;DHT22;2961;47.702;9.410;2022-08-02T09:20:58;26.70;86.90
5870;DHT22;2961;47.702;9.410;2022-08-02T09:23:25;26.90;88.80
5870;DHT22;2961;47.702;9.410;2022-08-02T09:26:02;27.00;87.90
5870;DHT22;2961;47.702;9.410;2022-08-02T09:28:30;26.90;87.10
5870;DHT22;2961;47.702;9.410;2022-08-02T09:31:03;27.20;88.70
5870;DHT22;2961;47.702;9.410;2022-08-02T09:33:31;27.40;87.50
5870;DHT22;2961;47.702;9.410;2022-08-02T09:35:59;28.00;83.60
5870;DHT22;2961;47.702;9.410;2022-08-02T09:38:27;28.60;81.50
5870;DHT22;2961;47.702;9.410;2022-08-02T09:40:54;29.00;82.10
5870;DHT22;2961;47.702;9.410;2022-08-02T09:43:21;29.20;80.60
5870;DHT22;2961;47.702;9.410;2022-08-02T09:45:49;29.40;79.30
5870;DHT22;2961;47.702;9.410;2022-08-02T09:48:17;29.90;77.40
5870;DHT22;2961;47.702;9.410;2022-08-02T09:50:44;30.30;76.30
5870;DHT22;2961;47.702;9.410;2022-08-02T09:53:12;30.60;73.50
5870;DHT22;2961;47.702;9.410;2022-08-02T09:55:40;30.70;74.30
5870;DHT22;2961;47.702;9.410;2022-08-02T09:58:17;30.80;77.70
5870;DHT22;2961;47.702;9.410;2022-08-02T10:00:54;30.70;76.30
5870;DHT22;2961;47.702;9.410;2022-08-02T10:03:24;30.50;79.00
5870;DHT22;2961;47.702;9.410;2022-08-02T10:05:51;30.70;74.60
5870;DHT22;2961;47.702;9.410;2022-08-02T10:08:19;30.50;76.10
5870;DHT22;2961;47.702;9.410;2022-08-02T10:10:47;30.10;75.20
5870;DHT22;2961;47.702;9.410;2022-08-02T10:13:26;29.50;78.90
5870;DHT22;2961;47.702;9.410;2022-08-02T10:15:54;29.10;80.60
5870;DHT22;2961;47.702;9.410;2022-08-02T10:18:23;28.60;82.90
5870;DHT22;2961;47.702;9.410;2022-08-02T10:20:50;28.20;85.10
5870;DHT22;2961;47.702;9.410;2022-08-02T10:23:20;27.70;82.40
5870;DHT22;2961;47.702;9.410;2022-08-02T10:25:49;27.10;85.80
5870;DHT22;2961;47.702;9.410;2022-08-02T10:28:19;26.80;86.30
5870;DHT22;2961;47.702;9.410;2022-08-02T10:30:49;26.70;89.00
5870;DHT22;2961;47.702;9.410;2022-08-02T10:33:18;26.60;90.10
5870;DHT22;2961;47.702;9.410;2022-08-02T10:35:49;26.50;90.50
5870;DHT22;2961;47.702;9.410;2022-08-02T10:38:17;26.60;91.00
5870;DHT22;2961;47.702;9.410;2022-08-02T10:40:45;26.60;91.10
5870;DHT22;2961;47.702;9.410;2022-08-02T10:43:39;26.70;91.10
5870;DHT22;2961;47.702;9.410;2022-08-02T10:46:36;26.70;90.90
5870;DHT22;2961;47.702;9.410;2022-08-02T10:49:09;26.60;90.70
5870;DHT22;2961;47.702;9.410;2022-08-02T10:51:58;26.60;91.50
5870;DHT22;2961;47.702;9.410;2022-08-02T10:54:34;26.70;91.00
5870;DHT22;2961;47.702;9.410;2022-08-02T10:57:02;26.80;92.40
5870;DHT22;2961;47.702;9.410;2022-08-02T10:59:30;26.90;89.90
5870;DHT22;2961;47.702;9.410;2022-08-02T11:01:58;26.80;88.50
5870;DHT22;2961;47.702;9.410;2022-08-02T11:04:30;26.70;90.30
5870;DHT22;2961;47.702;9.410;2022-08-02T11:07:09;26.70;89.80
5870;DHT22;2961;47.702;9.410;2022-08-02T11:09:54;26.60;89.20
5870;DHT22;2961;47.702;9.410;2022-08-02T11:12:21;26.60;89.80
5870;DHT22;2961;47.702;9.410;2022-08-02T11:14:58;26.70;88.40
5870;DHT22;2961;47.702;9.410;2022-08-02T11:17:25;26.80;90.10
5870;DHT22;2961;47.702;9.410;2022-08-02T11:20:15;26.90;90.60
5870;DHT22;2961;47.702;9.410;2022-08-02T11:22:46;26.90;92.60
5870;DHT22;2961;47.702;9.410;2022-08-02T11:25:32;27.00;89.40
5870;DHT22;2961;47.702;9.410;2022-08-02T11:28:07;27.20;93.80
5870;DHT22;2961;47.702;9.410;2022-08-02T11:30:35;27.10;92.00
5870;DHT22;2961;47.702;9.410;2022-08-02T11:33:02;27.20;92.70
5870;DHT22;2961;47.702;9.410;2022-08-02T11:35:34;27.20;95.00
5870;DHT22;2961;47.702;9.410;2022-08-02T11:38:13;27.20;94.30
5870;DHT22;2961;47.702;9.410;2022-08-02T11:40:40;27.30;94.20
5870;DHT22;2961;47.702;9.410;2022-08-02T11:43:19;27.20;93.10
5870;DHT22;2961;47.702;9.410;2022-08-02T11:45:46;27.30;93.60
5870;DHT22;2961;47.702;9.410;2022-08-02T11:48:13;27.40;94.50
5870;DHT22;2961;47.702;9.410;2022-08-02T11:50:40;27.40;94.80
5870;DHT22;2961;47.702;9.410;2022-08-02T11:53:15;27.50;93.90
5870;DHT22;2961;47.702;9.410;2022-08-02T11:55:42;27.50;94.80
5870;DHT22;2961;47.702;9.410;2022-08-02T11:58:09;27.60;95.10
5870;DHT22;2961;47.702;9.410;2022-08-02T12:00:37;27.60;94.90
5870;DHT22;2961;47.702;9.410;2022-08-02T12:03:06;27.60;94.20
5870;DHT22;2961;47.702;9.410;2022-08-02T12:05:33;27.60;94.50
5870;DHT22;2961;47.702;9.410;2022-08-02T12:08:05;27.60;94.40
5870;DHT22;2961;47.702;9.410;2022-08-02T12:10:33;27.60;95.50
5870;DHT22;2961;47.702;9.410;2022-08-02T12:13:00;27.70;94.80
5870;DHT22;2961;47.702;9.410;2022-08-02T12:15:29;27.80;94.30
5870;DHT22;2961;47.702;9.410;2022-08-02T12:17:56;27.70;93.80
5870;DHT22;2961;47.702;9.410;2022-08-02T12:20:40;27.70;94.00
5870;DHT22;2961;47.702;9.410;2022-08-02T12:23:07;27.70;94.30
5870;DHT22;2961;47.702;9.410;2022-08-02T12:25:35;27.70;93.00
5870;DHT22;2961;47.702;9.410;2022-08-02T12:28:13;27.80;93.80
5870;DHT22;2961;47.702;9.410;2022-08-02T12:30:49;27.90;93.10
5870;DHT22;2961;47.702;9.410;2022-08-02T12:33:16;27.90;92.70
5870;DHT22;2961;47.702;9.410;2022-08-02T12:35:44;27.90;93.90
5870;DHT22;2961;47.702;9.410;2022-08-02T12:38:12;28.00;93.70
5870;DHT22;2961;47.702;9.410;2022-08-02T12:40:40;28.10;93.30
5870;DHT22;2961;47.702;9.410;2022-08-02T12:43:15;28.10;93.60
5870;DHT22;2961;47.702;9.410;2022-08-02T12:45:48;28.10;93.50
5870;DHT22;2961;47.702;9.410;2022-08-02T12:48:15;28.20;93.20
5870;DHT22;2961;47.702;9.410;2022-08-02T12:50:43;28.20;93.30
5870;DHT22;2961;47.702;9.410;2022-08-02T12:53:12;28.30;92.80
5870;DHT22;2961;47.702;9.410;2022-08-02T12:55:53;28.30;92.50
5870;DHT22;2961;47.702;9.410;2022-08-02T12:58:20;28.40;92.60
5870;DHT22;2961;47.702;9.410;2022-08-02T13:00:52;28.40;91.30
5870;DHT22;2961;47.702;9.410;2022-08-02T13:03:19;28.40;92.50
5870;DHT22;2961;47.702;9.410;2022-08-02T13:05:46;28.50;92.00
5870;DHT22;2961;47.702;9.410;2022-08-02T13:08:13;28.60;92.30
5870;DHT22;2961;47.702;9.410;2022-08-02T13:10:41;28.60;92.70
5870;DHT22;2961;47.702;9.410;2022-08-02T13:13:09;28.60;91.30
5870;DHT22;2961;47.702;9.410;2022-08-02T13:15:36;28.70;90.60
5870;DHT22;2961;47.702;9.410;2022-08-02T13:18:04;28.70;91.20
5870;DHT22;2961;47.702;9.410;2022-08-02T13:20:30;28.80;90.90
5870;DHT22;2961;47.702;9.410;2022-08-02T13:22:57;28.70;90.30
5870;DHT22;2961;47.702;9.410;2022-08-02T13:25:24;28.70;90.40
5870;DHT22;2961;47.702;9.410;2022-08-02T13:27:52;28.80;90.20
5870;DHT22;2961;47.702;9.410;2022-08-02T13:30:20;28.80;91.10
5870;DHT22;2961;47.702;9.410;2022-08-02T13:32:47;28.80;90.70
5870;DHT22;2961;47.702;9.410;2022-08-02T13:35:14;28.90;90.10
5870;DHT22;2961;47.702;9.410;2022-08-02T13:37:41;29.00;90.10
5870;DHT22;2961;47.702;9.410;2022-08-02T13:40:09;28.90;87.60
5870;DHT22;2961;47.702;9.410;2022-08-02T13:42:36;29.00;89.30
5870;DHT22;2961;47.702;9.410;2022-08-02T13:45:06;29.10;87.60
5870;DHT22;2961;47.702;9.410;2022-08-02T13:47:36;29.10;86.90
5870;DHT22;2961;47.702;9.410;2022-08-02T13:50:04;29.20;85.50
5870;DHT22;2961;47.702;9.410;2022-08-02T13:52:31;29.10;85.20
5870;DHT22;2961;47.702;9.410;2022-08-02T13:54:58;29.10;86.70
5870;DHT22;2961;47.702;9.410;2022-08-02T13:57:25;29.10;85.40
5870;DHT22;2961;47.702;9.410;2022-08-02T13:59:52;29.20;86.10
5870;DHT22;2961;47.702;9.410;2022-08-02T14:02:18;29.10;87.50
5870;DHT22;2961;47.702;9.410;2022-08-02T14:04:47;29.20;84.20
5870;DHT22;2961;47.702;9.410;2022-08-02T14:07:13;29.10;84.10
5870;DHT22;2961;47.702;9.410;2022-08-02T14:09:41;29.10;84.30
5870;DHT22;2961;47.702;9.410;2022-08-02T14:12:08;29.10;84.80
5870;DHT22;2961;47.702;9.410;2022-08-02T14:14:35;29.10;83.30
5870;DHT22;2961;47.702;9.410;2022-08-02T14:17:02;29.20;83.30
5870;DHT22;2961;47.702;9.410;2022-08-02T14:19:29;29.10;83.70
5870;DHT22;2961;47.702;9.410;2022-08-02T14:21:57;29.20;82.70
5870;DHT22;2961;47.702;9.410;2022-08-02T14:24:24;29.20;83.50
5870;DHT22;2961;47.702;9.410;2022-08-02T14:26:51;29.20;81.60
5870;DHT22;2961;47.702;9.410;2022-08-02T14:29:17;29.20;82.00
5870;DHT22;2961;47.702;9.410;2022-08-02T14:31:44;29.20;80.70
5870;DHT22;2961;47.702;9.410;2022-08-02T14:34:11;29.30;81.30
5870;DHT22;2961;47.702;9.410;2022-08-02T14:36:38;29.20;82.20
5870;DHT22;2961;47.702;9.410;2022-08-02T14:39:06;29.10;82.60
5870;DHT22;2961;47.702;9.410;2022-08-02T14:41:33;29.20;82.10
5870;DHT22;2961;47.702;9.410;2022-08-02T14:44:01;29.20;81.40
5870;DHT22;2961;47.702;9.410;2022-08-02T14:46:34;29.20;81.70
5870;DHT22;2961;47.702;9.410;2022-08-02T14:49:01;29.20;80.40
5870;DHT22;2961;47.702;9.410;2022-08-02T14:51:29;29.10;79.10
5870;DHT22;2961;47.702;9.410;2022-08-02T14:53:56;29.10;80.20
5870;DHT22;2961;47.702;9.410;2022-08-02T14:56:25;29.10;80.80
5870;DHT22;2961;47.702;9.410;2022-08-02T14:58:52;29.00;81.10
5870;DHT22;2961;47.702;9.410;2022-08-02T15:01:19;29.00;79.00
5870;DHT22;2961;47.702;9.410;2022-08-02T15:03:46;28.90;80.70
5870;DHT22;2961;47.702;9.410;2022-08-02T15:06:13;28.80;81.50
5870;DHT22;2961;47.702;9.410;2022-08-02T15:08:40;29.00;81.00
5870;DHT22;2961;47.702;9.410;2022-08-02T15:11:06;29.00;81.00
5870;DHT22;2961;47.702;9.410;2022-08-02T15:13:35;29.10;80.00
5870;DHT22;2961;47.702;9.410;2022-08-02T15:16:02;29.10;80.10
5870;DHT22;2961;47.702;9.410;2022-08-02T15:18:29;29.10;80.70
5870;DHT22;2961;47.702;9.410;2022-08-02T15:20:56;29.00;82.20
5870;DHT22;2961;47.702;9.410;2022-08-02T15:23:23;29.10;81.60
5870;DHT22;2961;47.702;9.410;2022-08-02T15:25:50;29.10;81.00
5870;DHT22;2961;47.702;9.410;2022-08-02T15:28:17;29.00;79.00
5870;DHT22;2961;47.702;9.410;2022-08-02T15:30:45;28.90;79.80
5870;DHT22;2961;47.702;9.410;2022-08-02T15:33:12;28.70;80.30
5870;DHT22;2961;47.702;9.410;2022-08-02T15:35:39;28.70;78.30
5870;DHT22;2961;47.702;9.410;2022-08-02T15:38:06;28.60;80.60
5870;DHT22;2961;47.702;9.410;2022-08-02T15:40:33;28.60;79.10
5870;DHT22;2961;47.702;9.410;2022-08-02T15:43:00;28.50;80.20
5870;DHT22;2961;47.702;9.410;2022-08-02T15:45:27;28.40;79.20
5870;DHT22;2961;47.702;9.410;2022-08-02T15:47:55;28.40;78.70
5870;DHT22;2961;47.702;9.410;2022-08-02T15:50:22;28.40;78.50
5870;DHT22;2961;47.702;9.410;2022-08-02T15:52:49;28.40;76.80
5870;DHT22;2961;47.702;9.410;2022-08-02T15:55:15;28.50;74.50
5870;DHT22;2961;47.702;9.410;2022-08-02T15:57:42;28.70;74.10
5870;DHT22;2961;47.702;9.410;2022-08-02T16:00:10;28.70;73.70
5870;DHT22;2961;47.702;9.410;2022-08-02T16:02:37;28.90;73.70
5870;DHT22;2961;47.702;9.410;2022-08-02T16:05:07;29.00;74.00
5870;DHT22;2961;47.702;9.410;2022-08-02T16:07:34;29.10;73.30
5870;DHT22;2961;47.702;9.410;2022-08-02T16:10:00;29.10;72.70
5870;DHT22;2961;47.702;9.410;2022-08-02T16:12:29;29.10;70.70
5870;DHT22;2961;47.702;9.410;2022-08-02T16:14:56;29.20;73.50